Time;durP1;ratioP1;P1;durP2;ratioP2;P2;SDS_P1;SDS_P2;PMS_P1;PMS_P2;Temp;Humidity;BMP_temperature;BMP_pressure;BME280_temperature;BME280_humidity;BME280_pressure;Samples;Min_cycle;Max_cycle;Signal;HPM_P1;HPM_P2
2022/05/28 00:02:43;;;;;;;10.20;2.40;;;;;;;14.37;53.81;100885.44;20985658;28;20110;-73
2022/05/28 00:12:46;;;;;;;8.98;1.98;;;;;;;14.26;54.24;100887.47;20984396;28;20072;-72
2022/05/28 00:22:47;;;;;;;12.63;2.13;;;;;;;14.07;55.97;100893.16;20985921;28;20139;-73
2022/05/28 00:32:49;;;;;;;10.35;2.20;;;;;;;13.84;57.54;100885.75;20983878;28;20044;-73
2022/05/28 00:42:51;;;;;;;10.80;2.08;;;;;;;13.53;58.65;100889.94;20984411;28;20090;-72
2022/05/28 00:52:53;;;;;;;11.77;2.15;;;;;;;13.32;59.59;100888.59;20984617;28;20052;-73
2022/05/28 01:03:08;;;;;;;14.65;2.10;;;;;;;12.87;63.17;100899.00;20996412;28;20520;-72
2022/05/28 01:13:28;;;;;;;12.40;2.42;;;;;;;12.62;63.82;100902.94;20999455;28;20045;-72
2022/05/28 01:23:30;;;;;;;13.10;2.30;;;;;;;12.41;64.63;100912.91;20999458;28;20054;-72
2022/05/28 01:33:35;;;;;;;9.70;1.90;;;;;;;12.32;64.46;100918.28;20997617;28;20044;-72
2022/05/28 01:43:40;;;;;;;12.57;2.00;;;;;;;12.03;67.56;100903.81;20997756;28;20044;-72
2022/05/28 02:04:05;;;;;;;11.52;2.30;;;;;;;11.99;68.60;100912.59;20996134;28;20048;-73
2022/05/28 02:14:23;;;;;;;9.52;1.80;;;;;;;11.85;72.21;100903.19;20994968;28;20500;-75
2022/05/28 02:24:34;;;;;;;10.15;2.33;;;;;;;11.78;75.30;100902.34;20994887;28;20098;-74
2022/05/28 02:34:36;;;;;;;8.57;2.45;;;;;;;11.78;73.39;100897.09;20994819;28;20125;-74
2022/05/28 02:44:37;;;;;;;7.07;1.85;;;;;;;11.63;76.50;100902.53;20993077;28;20057;-74
2022/05/28 02:54:39;;;;;;;10.48;1.73;;;;;;;11.57;76.87;100899.09;20991611;28;20044;-73
2022/05/28 03:04:41;;;;;;;7.97;1.65;;;;;;;11.29;80.31;100902.91;20990986;28;20056;-73
2022/05/28 03:14:42;;;;;;;9.40;2.30;;;;;;;11.14;80.80;100908.31;20991498;28;20519;-73
2022/05/28 03:24:44;;;;;;;5.72;1.80;;;;;;;10.87;81.91;100905.06;20990395;28;20086;-73
2022/05/28 03:34:45;;;;;;;10.95;2.08;;;;;;;10.58;84.23;100921.00;20988544;28;20124;-74
2022/05/28 03:44:46;;;;;;;7.45;2.30;;;;;;;10.47;83.81;100918.47;20988585;28;20389;-74
2022/05/28 03:54:48;;;;;;;8.07;1.70;;;;;;;10.33;84.63;100930.78;20988219;28;20049;-73
2022/05/28 04:04:50;;;;;;;11.15;2.13;;;;;;;10.33;85.29;100935.16;20986180;28;20045;-73
2022/05/28 04:14:51;;;;;;;11.60;2.20;;;;;;;10.38;87.20;100943.84;20985774;28;20534;-74
2022/05/28 04:24:53;;;;;;;10.75;1.98;;;;;;;10.74;83.52;100940.13;20984280;28;20044;-73
2022/05/28 04:34:55;;;;;;;8.77;1.92;;;;;;;11.85;77.37;100943.41;20983917;28;20427;-73
2022/05/28 04:44:57;;;;;;;12.27;2.10;;;;;;;12.52;73.13;100929.34;20984847;28;20053;-74
2022/05/28 04:54:58;;;;;;;10.77;1.83;;;;;;;12.21;74.04;100944.66;20983212;28;20098;-74
2022/05/28 05:05:00;;;;;;;9.73;2.10;;;;;;;11.75;76.08;100960.97;20983913;28;20048;-73
2022/05/28 05:15:02;;;;;;;11.15;2.60;;;;;;;11.74;75.01;100954.00;20984078;28;20170;-74
2022/05/28 05:25:05;;;;;;;9.70;2.05;;;;;;;12.16;73.99;100962.22;20983249;28;20449;-74
2022/05/28 05:35:07;;;;;;;10.50;2.05;;;;;;;12.36;68.55;100959.38;20982266;28;20459;-74
2022/05/28 05:45:09;;;;;;;9.30;1.90;;;;;;;12.71;67.76;100966.72;20987232;28;20507;-74
2022/05/28 05:55:11;;;;;;;11.40;2.30;;;;;;;12.94;65.00;100962.84;20997847;28;20110;-74
2022/05/28 06:05:12;;;;;;;5.88;1.80;;;;;;;13.01;63.79;100965.34;20995218;28;20102;-72
2022/05/28 06:15:14;;;;;;;9.27;1.88;;;;;;;13.03;64.27;100968.84;20995444;28;20463;-72
2022/05/28 06:25:15;;;;;;;9.80;1.80;;;;;;;13.24;60.12;100964.13;20994747;28;20052;-72
2022/05/28 06:35:17;;;;;;;8.73;1.70;;;;;;;13.31;58.48;100950.81;20993326;28;20087;-71
2022/05/28 06:45:18;;;;;;;6.28;1.50;;;;;;;13.56;55.83;100953.88;20992834;28;20094;-71
2022/05/28 06:55:20;;;;;;;11.52;2.03;;;;;;;13.62;55.09;100942.38;20966331;28;20040;-71
2022/05/28 07:05:22;;;;;;;6.50;1.58;;;;;;;13.75;55.17;100946.50;20927241;28;20041;-71
2022/05/28 07:15:23;;;;;;;5.30;1.55;;;;;;;13.97;52.13;100939.00;20942958;28;20053;-71
2022/05/28 07:25:25;;;;;;;9.02;1.63;;;;;;;14.31;53.15;100938.28;20925186;28;20045;-71
2022/05/28 07:35:26;;;;;;;6.75;1.25;;;;;;;14.37;54.20;100928.50;20917161;28;20049;-71
2022/05/28 07:45:30;;;;;;;7.90;1.73;;;;;;;14.45;52.21;100915.13;20979865;28;20102;-71
2022/05/28 07:55:32;;;;;;;7.90;1.63;;;;;;;14.90;52.21;100907.03;20978586;28;20106;-74
2022/05/28 08:05:36;;;;;;;9.02;1.52;;;;;;;15.27;50.03;100900.78;20977787;28;20094;-73
2022/05/28 08:15:40;;;;;;;11.90;1.35;;;;;;;15.49;49.82;100886.09;20929113;28;20052;-73
2022/05/28 08:25:41;;;;;;;10.70;1.58;;;;;;;15.00;50.21;100890.06;20895738;28;20040;-73
2022/05/28 08:35:45;;;;;;;9.05;1.58;;;;;;;15.62;48.96;100882.22;20894015;28;20091;-73
2022/05/28 08:45:50;;;;;;;8.10;1.40;;;;;;;15.58;47.49;100874.41;20894407;28;20053;-73
2022/05/28 08:55:53;;;;;;;10.07;1.53;;;;;;;16.30;46.83;100873.13;20893402;28;20044;-73
2022/05/28 09:06:10;;;;;;;9.15;1.88;;;;;;;16.85;44.46;100867.81;20893110;28;20298;-74
2022/05/28 09:16:26;;;;;;;6.53;1.38;;;;;;;17.14;44.25;100857.09;20946361;28;20049;-74
2022/05/28 09:26:31;;;;;;;8.10;1.42;;;;;;;16.75;42.63;100861.13;20990990;28;20593;-74
2022/05/28 09:36:52;;;;;;;6.60;1.42;;;;;;;17.21;42.65;100844.53;20990444;28;20048;-74
2022/05/28 09:46:53;;;;;;;6.97;1.48;;;;;;;16.98;42.07;100831.25;20990067;28;20079;-74
2022/05/28 09:57:22;;;;;;;8.35;1.45;;;;;;;17.49;39.36;100820.56;20989026;28;20460;-74
2022/05/28 10:07:34;;;;;;;6.28;1.38;;;;;;;17.58;39.10;100809.63;20988081;28;20078;-73
2022/05/28 10:17:36;;;;;;;6.03;1.40;;;;;;;17.96;38.30;100796.66;20923798;28;20148;-74
2022/05/28 10:27:52;;;;;;;7.18;1.48;;;;;;;17.53;39.12;100787.72;20904616;28;20107;-73
2022/05/28 10:38:20;;;;;;;6.47;1.52;;;;;;;17.74;39.64;100779.91;20918488;28;20055;-73
2022/05/28 10:48:34;;;;;;;6.80;1.40;;;;;;;18.26;38.71;100776.03;20982966;28;20048;-73
2022/05/28 10:58:46;;;;;;;4.33;1.10;;;;;;;17.65;39.29;100786.41;20984358;28;20059;-72
2022/05/28 11:09:04;;;;;;;4.50;1.00;;;;;;;17.25;40.46;100776.44;20982789;28;20059;-73
2022/05/28 11:19:13;;;;;;;4.97;1.55;;;;;;;17.96;39.87;100751.63;20984016;28;20416;-73
2022/05/28 11:29:52;;;;;;;3.72;1.05;;;;;;;18.71;37.55;100725.47;20983369;28;20494;-74
2022/05/28 11:40:00;;;;;;;5.30;1.25;;;;;;;18.60;36.62;100709.16;20981794;28;20083;-74
2022/05/28 12:00:30;;;;;;;5.57;1.00;;;;;;;19.11;36.17;100683.88;20979804;28;20056;-74
2022/05/28 12:10:43;;;;;;;3.53;0.65;;;;;;;19.18;32.35;100663.22;20974212;28;20059;-73
2022/05/28 12:20:54;;;;;;;3.28;0.73;;;;;;;18.43;34.29;100663.94;20897417;28;20049;-74
2022/05/28 12:31:01;;;;;;;2.95;0.65;;;;;;;18.72;34.62;100660.03;20896786;28;20045;-74
2022/05/28 12:41:04;;;;;;;3.67;0.80;;;;;;;18.88;31.53;100634.53;20896781;28;20075;-74
2022/05/28 12:51:24;;;;;;;5.30;1.20;;;;;;;19.44;32.74;100628.31;20896696;28;20052;-74
2022/05/28 13:01:28;;;;;;;5.28;1.13;;;;;;;19.07;32.09;100610.66;20916689;28;20095;-74
2022/05/28 13:11:35;;;;;;;2.27;0.70;;;;;;;18.85;33.68;100602.84;20926286;28;20056;-74
2022/05/28 13:21:51;;;;;;;3.28;0.60;;;;;;;18.13;34.48;100590.16;20996055;28;20056;-75
2022/05/28 13:32:11;;;;;;;3.47;0.80;;;;;;;19.60;34.25;100567.38;20992868;28;20050;-75
2022/05/28 13:42:18;;;;;;;4.15;1.00;;;;;;;18.86;33.76;100566.53;20990740;28;20481;-74
2022/05/28 13:52:21;;;;;;;2.55;1.02;;;;;;;18.35;34.75;100560.03;20990280;28;20060;-75
2022/05/28 14:02:26;;;;;;;4.30;1.00;;;;;;;18.69;35.10;100560.25;20989364;28;20468;-74
2022/05/28 14:12:39;;;;;;;5.43;0.90;;;;;;;18.57;35.23;100558.13;20972539;28;20079;-74
2022/05/28 14:22:49;;;;;;;3.95;0.90;;;;;;;18.39;34.99;100545.72;20910786;28;20045;-73
2022/05/28 14:32:51;;;;;;;4.75;1.02;;;;;;;19.46;35.51;100530.84;20903867;28;20045;-73
2022/05/28 14:42:59;;;;;;;1.70;0.65;;;;;;;18.88;34.50;100519.59;20903255;28;20421;-72
2022/05/28 14:53:01;;;;;;;3.40;0.70;;;;;;;18.75;35.71;100507.84;20965147;28;20052;-74
2022/05/28 15:03:08;;;;;;;4.22;0.75;;;;;;;18.51;35.14;100507.19;20983973;28;20059;-73
2022/05/28 15:13:18;;;;;;;2.75;0.70;;;;;;;18.49;34.90;100503.72;20978780;28;20071;-71
2022/05/28 15:23:20;;;;;;;2.95;0.77;;;;;;;18.08;34.17;100494.09;20964087;28;20548;-72
2022/05/28 15:33:24;;;;;;;3.70;1.13;;;;;;;18.09;36.53;100498.47;20897676;28;20053;-73
2022/05/28 15:43:27;;;;;;;3.50;0.90;;;;;;;18.13;39.59;100496.53;20896927;28;20483;-73
2022/05/28 15:53:30;;;;;;;4.70;1.17;;;;;;;18.00;39.58;100484.78;20897049;28;20060;-72
2022/05/28 16:03:33;;;;;;;4.47;0.82;;;;;;;17.73;40.16;100482.44;20896319;28;20041;-72
2022/05/28 16:13:37;;;;;;;4.32;1.23;;;;;;;17.93;37.28;100463.00;20925947;28;20542;-72
2022/05/28 16:23:43;;;;;;;3.42;1.00;;;;;;;18.14;37.04;100443.47;20974729;28;20053;-73
2022/05/28 16:33:47;;;;;;;3.65;0.90;;;;;;;18.25;35.43;100440.31;20976134;28;20048;-72
2022/05/28 16:43:52;;;;;;;4.20;0.90;;;;;;;18.63;34.55;100427.88;20962362;28;20036;-72
2022/05/28 16:53:54;;;;;;;3.28;0.88;;;;;;;18.92;35.33;100417.66;20976674;28;20552;-72
2022/05/28 17:03:56;;;;;;;3.20;1.10;;;;;;;18.06;36.28;100421.78;20975814;28;20513;-73
2022/05/28 17:13:59;;;;;;;3.35;0.80;;;;;;;17.61;37.43;100420.25;20975610;28;20056;-72
2022/05/28 17:24:03;;;;;;;3.83;1.07;;;;;;;17.71;38.22;100420.69;20974250;28;20110;-73
2022/05/28 17:34:07;;;;;;;3.42;1.10;;;;;;;17.63;38.37;100422.81;20973683;28;20052;-73
2022/05/28 17:44:09;;;;;;;4.22;1.20;;;;;;;17.48;39.70;100419.06;20983619;28;20083;-72
2022/05/28 17:54:10;;;;;;;3.72;0.90;;;;;;;17.37;39.42;100411.59;20988682;28;20057;-72
2022/05/28 18:04:19;;;;;;;4.90;1.20;;;;;;;17.24;40.94;100413.03;20984868;28;20045;-72
2022/05/28 18:14:22;;;;;;;5.35;1.10;;;;;;;17.60;41.78;100407.94;20948362;28;20048;-73
2022/05/28 18:24:35;;;;;;;7.50;1.45;;;;;;;17.18;42.68;100397.44;20903159;28;20144;-72
2022/05/28 18:34:37;;;;;;;3.70;0.90;;;;;;;17.04;44.77;100389.22;20903034;28;20055;-72
2022/05/28 18:44:43;;;;;;;5.57;1.00;;;;;;;16.67;49.04;100398.66;20951099;28;20524;-72
2022/05/28 18:54:45;;;;;;;2.97;0.93;;;;;;;16.43;48.67;100389.94;20984693;28;20076;-72
2022/05/28 19:04:46;;;;;;;4.82;2.20;;;;;;;16.10;50.60;100393.00;20982634;28;20505;-73
2022/05/28 19:14:53;;;;;;;4.88;1.40;;;;;;;15.88;51.58;100390.31;20980307;28;20201;-72
2022/05/28 19:35:15;;;;;;;5.95;1.33;;;;;;;15.25;56.56;100396.13;20970890;28;20057;-72
2022/05/28 19:45:20;;;;;;;1.95;0.90;;;;;;;15.24;56.08;100397.03;20921196;28;20049;-72
2022/05/28 19:55:22;;;;;;;6.55;1.42;;;;;;;15.03;59.80;100401.25;20900211;28;20063;-72
2022/05/28 20:05:26;;;;;;;4.35;1.70;;;;;;;14.92;60.78;100398.13;20894346;28;20053;-71
2022/05/28 20:15:27;;;;;;;3.13;1.23;;;;;;;14.93;58.04;100400.72;20942458;28;20084;-71
2022/05/28 20:25:29;;;;;;;4.65;1.30;;;;;;;14.76;57.14;100403.06;20974512;28;20130;-71
2022/05/28 20:35:32;;;;;;;4.85;1.40;;;;;;;14.57;56.86;100392.25;20975303;28;20056;-71
2022/05/28 20:45:34;;;;;;;4.30;1.20;;;;;;;14.53;57.15;100383.59;20977699;28;20045;-71
2022/05/28 20:55:35;;;;;;;3.97;1.10;;;;;;;14.58;58.71;100379.03;20956837;28;20409;-71
2022/05/28 21:05:37;;;;;;;5.43;1.30;;;;;;;14.57;61.27;100377.31;20891114;28;20505;-72
2022/05/28 21:15:39;;;;;;;9.30;1.92;;;;;;;14.47;58.01;100370.59;20946498;28;20463;-71
2022/05/28 21:29:49;;;;;;;3.75;1.20;;;;;;;14.33;57.34;100364.91;20991254;28;20049;-71
2022/05/28 21:36:03;;;;;;;4.72;1.48;;;;;;;14.15;59.20;100366.31;20990182;28;20052;-71
2022/05/28 21:46:04;;;;;;;6.82;1.27;;;;;;;13.93;58.04;100350.31;20990228;28;20045;-72
2022/05/28 21:56:06;;;;;;;3.88;1.05;;;;;;;14.02;55.75;100342.13;20989523;28;20437;-73
2022/05/28 22:06:08;;;;;;;5.15;1.65;;;;;;;13.97;52.64;100337.94;20991644;28;20049;-72
2022/05/28 22:16:12;;;;;;;5.80;1.40;;;;;;;13.89;51.62;100318.88;20996663;28;20049;-72
2022/05/28 22:26:14;;;;;;;;;;;;;;;13.86;50.14;100322.47;20997131;28;20489;-72
2022/05/28 22:36:16;;;;;;;4.00;1.13;;;;;;;13.75;50.91;100316.66;21000943;28;19924;-71
2022/05/28 22:46:17;;;;;;;3.15;1.20;;;;;;;13.72;50.24;100315.00;20991562;28;20098;-71
2022/05/28 22:56:19;;;;;;;4.13;1.13;;;;;;;13.62;49.22;100302.16;20992438;28;20048;-72
2022/05/28 23:06:25;;;;;;;4.57;1.30;;;;;;;13.57;49.70;100299.66;20989750;28;20054;-72
2022/05/28 23:16:27;;;;;;;6.97;1.83;;;;;;;13.43;50.29;100284.28;20990785;28;20056;-72
2022/05/28 23:26:28;;;;;;;7.18;1.33;;;;;;;13.41;51.44;100267.66;20990122;28;20047;-72
2022/05/28 23:36:37;;;;;;;7.57;1.48;;;;;;;13.32;51.51;100266.19;20988113;28;20052;-73
2022/05/28 23:46:47;;;;;;;6.97;1.70;;;;;;;13.22;51.66;100253.34;20985675;28;20456;-73
2022/05/28 23:56:50;;;;;;;7.63;1.20;;;;;;;13.06;52.12;100235.34;20987104;28;20049;-73
